Terminal Aerodrome Forecast
Issued by NWS Birmingham, AL

Home | Current Version | Previous Version | Text Only | Print | Product List | Glossary On
Versions: 1 2 3 4 5 6 7 8 9 10 11 12 13 14
389
FTUS44 KBMX 290523
TAFBHM
TAF
KBHM 290523Z 2906/3006 16007KT P6SM SCT040 SCT250
     FM290900 16008KT P6SM BKN012 OVC030
      TEMPO 2910/2913 BKN008 OVC020
     FM291600 16014G23KT P6SM SCT040 SCT250
     FM300100 16008KT P6SM SCT060 SCT250=

USA.gov is the U.S. government's official web portal to all federal, state and local government web resources and services.